Time;durP1;ratioP1;P1;durP2;ratioP2;P2;SDS_P1;SDS_P2;PMS_P1;PMS_P2;Temp;Humidity;BMP_temperature;BMP_pressure;BME280_temperature;BME280_humidity;BME280_pressure;Samples;Min_cycle;Max_cycle;Signal;HPM_P1;HPM_P2
2022/11/11 00:02:24;;;;;;;33.60;16.55;;;3.30;99.90;;;;;;5038478;28;20056;-86
2022/11/11 00:05:09;;;;;;;28.25;14.15;;;3.30;99.90;;;;;;5036162;28;20499;-87
2022/11/11 00:07:58;;;;;;;37.67;15.02;;;3.20;99.90;;;;;;5042727;28;20812;-87
2022/11/11 00:10:43;;;;;;;35.13;13.93;;;3.20;99.90;;;;;;5042777;28;20071;-87
2022/11/11 00:13:27;;;;;;;29.27;14.00;;;3.20;99.90;;;;;;5047757;28;20040;-87
2022/11/11 00:16:18;;;;;;;42.80;16.73;;;3.20;99.90;;;;;;5039005;28;20059;-87
2022/11/11 00:25:33;;;;;;;35.53;16.65;;;3.70;99.90;;;;;;5044946;28;20052;-86
2022/11/11 00:28:17;;;;;;;43.80;18.70;;;3.70;99.90;;;;;;5040939;28;20642;-87
2022/11/11 00:31:12;;;;;;;37.28;17.33;;;3.60;99.90;;;;;;5034471;28;20041;-87
2022/11/11 00:33:56;;;;;;;37.72;17.27;;;3.50;99.90;;;;;;5044937;28;20086;-87
2022/11/11 00:37:20;;;;;;;49.13;19.02;;;3.40;99.90;;;;;;5043405;28;20040;-87
2022/11/11 00:40:06;;;;;;;48.53;17.95;;;3.40;99.90;;;;;;5039477;28;20044;-87
2022/11/11 00:42:50;;;;;;;40.20;18.88;;;3.40;99.90;;;;;;5046812;28;20055;-87
2022/11/11 00:45:34;;;;;;;54.75;22.98;;;3.30;99.90;;;;;;5039264;28;20056;-87
2022/11/11 00:51:22;;;;;;;43.17;20.45;;;3.40;99.90;;;;;;5034697;28;20047;-87
2022/11/11 00:54:12;;;;;;;48.45;21.65;;;3.30;99.90;;;;;;5030590;28;20112;-87
2022/11/11 00:56:56;;;;;;;53.20;21.88;;;3.20;99.90;;;;;;5040650;28;20044;-87
2022/11/11 00:59:40;;;;;;;41.63;20.45;;;3.30;99.90;;;;;;5039110;28;20086;-88
2022/11/11 01:02:24;;;;;;;48.58;21.30;;;3.30;99.90;;;;;;5049983;28;20982;-87
2022/11/11 01:05:08;;;;;;;51.47;19.08;;;3.20;99.90;;;;;;5038611;28;20040;-88
2022/11/11 01:07:53;;;;;;;44.35;20.73;;;3.20;99.90;;;;;;5047612;28;20045;-87
2022/11/11 01:10:37;;;;;;;48.28;20.65;;;3.10;99.90;;;;;;5038366;28;20040;-88
2022/11/11 01:13:24;;;;;;;46.05;19.05;;;3.10;99.90;;;;;;5044981;28;20107;-87
2022/11/11 01:16:12;;;;;;;37.92;18.80;;;3.10;99.90;;;;;;5033942;28;20044;-87
2022/11/11 01:18:56;;;;;;;51.10;20.75;;;3.10;99.90;;;;;;5041763;28;20079;-88
2022/11/11 01:21:40;;;;;;;52.80;21.88;;;3.20;99.90;;;;;;5042628;28;20404;-87
2022/11/11 01:24:24;;;;;;;51.42;21.23;;;3.20;99.90;;;;;;5042364;28;20924;-87
2022/11/11 01:27:09;;;;;;;52.97;21.38;;;3.40;99.90;;;;;;5037787;28;20044;-87
2022/11/11 01:30:05;;;;;;;55.15;19.67;;;3.40;99.90;;;;;;5043490;28;20040;-87
2022/11/11 01:32:49;;;;;;;45.40;19.10;;;3.50;99.90;;;;;;5042744;28;20032;-87
2022/11/11 01:35:37;;;;;;;49.80;20.65;;;3.50;99.90;;;;;;5042038;28;20071;-87
2022/11/11 01:38:21;;;;;;;47.70;16.90;;;3.50;99.90;;;;;;5044891;28;20558;-86
2022/11/11 01:44:12;;;;;;;40.00;15.15;;;3.30;99.90;;;;;;5037969;28;20778;-86
2022/11/11 01:47:04;;;;;;;37.00;15.77;;;3.30;99.90;;;;;;5029087;28;20170;-86
2022/11/11 01:49:50;;;;;;;43.30;16.15;;;3.20;99.90;;;;;;5042793;28;20107;-86
2022/11/11 01:52:38;;;;;;;39.70;15.65;;;3.20;99.90;;;;;;5046254;28;20099;-86
2022/11/11 01:55:24;;;;;;;42.97;15.65;;;3.20;99.90;;;;;;5047996;28;20075;-86
2022/11/11 01:58:17;;;;;;;34.17;14.38;;;3.30;99.90;;;;;;5048770;28;20047;-86
2022/11/11 02:01:02;;;;;;;37.05;14.05;;;3.30;99.90;;;;;;5039790;28;20048;-87
2022/11/11 02:07:42;;;;;;;33.83;13.82;;;3.60;99.90;;;;;;5014651;28;20101;-86
2022/11/11 02:10:30;;;;;;;32.00;15.13;;;3.70;99.90;;;;;;5012041;28;20060;-86
2022/11/11 02:16:18;;;;;;;37.45;15.50;;;3.70;99.90;;;;;;5045783;28;20514;-86
2022/11/11 02:19:02;;;;;;;55.53;16.38;;;3.70;99.90;;;;;;5039394;28;20443;-88
2022/11/11 02:21:55;;;;;;;43.20;16.95;;;3.80;99.90;;;;;;5045387;28;20044;-88
2022/11/11 02:24:40;;;;;;;44.83;18.65;;;3.80;99.90;;;;;;5045067;28;20040;-88
2022/11/11 02:27:29;;;;;;;51.60;18.63;;;3.90;99.90;;;;;;5046761;28;20048;-87
2022/11/11 02:30:16;;;;;;;47.75;20.13;;;3.90;99.90;;;;;;5039719;28;20040;-88
2022/11/11 02:33:00;;;;;;;44.03;19.20;;;4.00;99.90;;;;;;5045472;28;20434;-87
2022/11/11 02:35:54;;;;;;;54.53;19.85;;;4.00;99.90;;;;;;5044925;28;20492;-88
2022/11/11 02:38:59;;;;;;;50.85;20.05;;;3.90;99.90;;;;;;5031967;28;20083;-87
2022/11/11 02:41:56;;;;;;;43.55;19.98;;;3.90;99.90;;;;;;5043641;28;20040;-88
2022/11/11 02:44:40;;;;;;;48.15;20.83;;;3.90;99.90;;;;;;5046491;28;20040;-87
2022/11/11 02:47:25;;;;;;;46.10;20.92;;;3.70;99.90;;;;;;5048185;28;20078;-87
2022/11/11 02:50:09;;;;;;;50.78;22.17;;;3.70;99.90;;;;;;5048355;28;20036;-87
2022/11/11 02:52:53;;;;;;;51.97;22.85;;;3.70;99.90;;;;;;5044662;28;20072;-88
2022/11/11 02:55:37;;;;;;;53.65;24.48;;;3.70;99.90;;;;;;5043899;28;20044;-88
2022/11/11 02:58:21;;;;;;;59.05;26.05;;;3.70;99.90;;;;;;5045657;28;20074;-87
2022/11/11 03:01:05;;;;;;;73.53;26.88;;;3.70;99.90;;;;;;5037860;28;20040;-88
2022/11/11 03:03:50;;;;;;;64.90;25.15;;;3.80;99.90;;;;;;5045978;28;20063;-88
2022/11/11 03:06:34;;;;;;;60.80;27.17;;;3.90;99.90;;;;;;5045520;28;20208;-88
2022/11/11 03:09:18;;;;;;;66.18;31.00;;;3.90;99.90;;;;;;5047262;28;20086;-88
2022/11/11 03:12:02;;;;;;;75.28;29.98;;;4.00;99.90;;;;;;5045989;28;20036;-88
2022/11/11 03:14:47;;;;;;;73.25;32.53;;;4.00;99.90;;;;;;5043980;28;20044;-87
2022/11/11 03:17:39;;;;;;;66.18;31.67;;;4.20;99.90;;;;;;5049100;28;20407;-87
2022/11/11 03:23:27;;;;;;;68.13;27.05;;;4.50;99.90;;;;;;5041450;28;20040;-88
2022/11/11 03:26:11;;;;;;;73.25;27.77;;;4.60;99.90;;;;;;5036358;28;20052;-88
2022/11/11 03:28:56;;;;;;;74.97;27.33;;;4.60;99.90;;;;;;5047145;28;20052;-88
2022/11/11 03:31:40;;;;;;;58.95;26.25;;;4.60;99.90;;;;;;5045704;28;20120;-88
2022/11/11 03:34:23;;;;;;;71.72;27.52;;;4.50;99.90;;;;;;5048073;28;20051;-88
2022/11/11 03:40:39;;;;;;;80.53;32.10;;;4.10;99.90;;;;;;5043456;28;20033;-88
2022/11/11 03:43:28;;;;;;;72.75;29.60;;;4.10;99.90;;;;;;5046067;28;20087;-87
2022/11/11 03:46:22;;;;;;;84.28;34.05;;;4.00;99.90;;;;;;5046033;28;20542;-87
2022/11/11 03:49:06;;;;;;;70.70;31.58;;;3.80;99.90;;;;;;5040567;28;20384;-88
2022/11/11 03:51:50;;;;;;;78.18;31.58;;;3.80;99.90;;;;;;5048695;28;20503;-88
2022/11/11 03:54:34;;;;;;;69.65;30.70;;;3.80;99.90;;;;;;5040644;28;20059;-87
2022/11/11 03:57:30;;;;;;;65.60;27.52;;;3.70;99.90;;;;;;5044143;28;20378;-87
2022/11/11 04:00:17;;;;;;;76.13;28.10;;;3.60;99.90;;;;;;5029140;28;20127;-87
2022/11/11 04:16:04;;;;;;;72.80;27.55;;;3.20;99.90;;;;;;5046126;28;20134;-88
2022/11/11 04:21:45;;;;;;;71.50;27.90;;;3.10;99.90;;;;;;5045074;28;20060;-88
2022/11/11 04:27:33;;;;;;;71.75;30.38;;;3.30;99.90;;;;;;5047772;28;20090;-88
2022/11/11 04:30:17;;;;;;;75.60;31.90;;;3.40;99.90;;;;;;5041576;28;20067;-88
2022/11/11 04:33:01;;;;;;;73.15;29.25;;;3.30;99.90;;;;;;5031310;28;20579;-88
2022/11/11 04:35:48;;;;;;;65.07;27.67;;;3.20;99.90;;;;;;5041776;28;20918;-88
2022/11/11 04:41:36;;;;;;;59.72;24.30;;;3.00;99.90;;;;;;5045373;28;20144;-88
2022/11/11 04:47:22;;;;;;;51.90;22.50;;;2.90;99.90;;;;;;5040424;28;20064;-88
2022/11/11 04:50:07;;;;;;;56.58;23.23;;;3.10;99.90;;;;;;5032228;28;20496;-88
2022/11/11 04:52:51;;;;;;;56.05;21.85;;;3.10;99.90;;;;;;5042941;28;20129;-88
2022/11/11 04:58:39;;;;;;;52.00;22.00;;;2.90;99.90;;;;;;5044391;28;20167;-88
2022/11/11 05:04:27;;;;;;;52.55;22.60;;;2.90;99.90;;;;;;5032758;28;20053;-88
2022/11/11 05:10:14;;;;;;;37.90;18.48;;;2.80;99.90;;;;;;5041798;28;20036;-88
2022/11/11 05:25:52;;;;;;;43.35;17.70;;;3.00;99.90;;;;;;5047298;28;20419;-88
2022/11/11 05:28:36;;;;;;;56.33;19.95;;;3.00;99.90;;;;;;5047928;28;20108;-88
2022/11/11 05:31:20;;;;;;;46.83;18.75;;;3.00;99.90;;;;;;5049105;28;20113;-88
2022/11/11 05:34:04;;;;;;;54.20;23.10;;;2.90;99.90;;;;;;5039985;28;20076;-88
2022/11/11 05:36:48;;;;;;;54.03;24.08;;;2.90;99.90;;;;;;5045186;28;20039;-89
2022/11/11 05:39:32;;;;;;;59.13;26.83;;;3.00;99.90;;;;;;5051572;28;20725;-87
2022/11/11 05:42:16;;;;;;;61.03;28.30;;;3.10;99.90;;;;;;5044480;28;20088;-88
2022/11/11 05:45:00;;;;;;;68.40;28.58;;;3.00;99.90;;;;;;5037420;28;20052;-88
2022/11/11 05:47:44;;;;;;;63.10;32.42;;;3.00;99.90;;;;;;5044669;28;20207;-88
2022/11/11 05:50:28;;;;;;;71.65;34.88;;;3.00;99.90;;;;;;5046223;28;20108;-88
2022/11/11 05:53:12;;;;;;;77.93;32.80;;;3.10;99.90;;;;;;5040101;28;20851;-88
2022/11/11 05:55:56;;;;;;;73.13;32.42;;;3.10;99.90;;;;;;5045394;28;20055;-88
2022/11/11 05:58:41;;;;;;;62.00;30.52;;;3.10;99.90;;;;;;5047419;28;20079;-88
2022/11/11 06:01:25;;;;;;;60.45;30.40;;;3.10;99.90;;;;;;5041372;28;20080;-88
2022/11/11 06:04:10;;;;;;;54.80;26.98;;;3.10;99.90;;;;;;5023654;28;20496;-88
2022/11/11 06:06:55;;;;;;;52.55;25.40;;;3.20;99.90;;;;;;5035466;28;20049;-89
2022/11/11 06:09:39;;;;;;;59.80;25.73;;;3.20;99.90;;;;;;5035199;28;20496;-88
2022/11/11 06:12:23;;;;;;;65.85;28.05;;;3.10;99.90;;;;;;5029036;28;20496;-88
2022/11/11 06:15:07;;;;;;;55.88;26.08;;;3.00;99.90;;;;;;5028659;28;20547;-88
2022/11/11 06:17:51;;;;;;;60.47;25.52;;;3.00;99.90;;;;;;5034418;28;20116;-88
2022/11/11 06:20:36;;;;;;;55.30;26.15;;;3.10;99.90;;;;;;5035148;28;20036;-88
2022/11/11 06:23:20;;;;;;;54.13;25.30;;;3.10;99.90;;;;;;5035559;28;20136;-88
2022/11/11 06:26:15;;;;;;;60.60;28.05;;;3.10;99.90;;;;;;5029288;28;20040;-88
2022/11/11 06:28:59;;;;;;;75.00;34.58;;;3.20;99.90;;;;;;5031193;28;20492;-86
2022/11/11 06:31:44;;;;;;;80.60;35.55;;;3.20;99.90;;;;;;5029465;28;20091;-86
2022/11/11 06:34:28;;;;;;;80.43;36.35;;;3.40;99.90;;;;;;5027110;28;20137;-87
2022/11/11 06:37:12;;;;;;;74.88;33.25;;;3.50;99.90;;;;;;5031531;28;20475;-87
2022/11/11 06:39:57;;;;;;;86.47;38.13;;;3.60;99.90;;;;;;5022965;28;20495;-86
2022/11/11 06:42:41;;;;;;;72.07;34.30;;;3.70;99.90;;;;;;5033884;28;20040;-87
2022/11/11 06:45:28;;;;;;;81.70;38.80;;;3.60;99.90;;;;;;5032932;28;20056;-87
2022/11/11 06:48:12;;;;;;;113.72;43.35;;;3.60;99.90;;;;;;5033796;28;20068;-86
2022/11/11 06:51:05;;;;;;;118.45;45.53;;;3.80;99.90;;;;;;5033682;28;20060;-87
2022/11/11 06:53:50;;;;;;;114.07;42.72;;;4.00;99.90;;;;;;5034141;28;20041;-87
2022/11/11 06:56:34;;;;;;;91.30;38.85;;;4.10;99.90;;;;;;5029147;28;20044;-87
2022/11/11 06:59:18;;;;;;;120.57;45.28;;;4.20;99.90;;;;;;5033273;28;20549;-87
2022/11/11 07:02:03;;;;;;;121.88;44.60;;;4.30;99.90;;;;;;5034560;28;20032;-86
2022/11/11 07:04:46;;;;;;;152.13;57.85;;;4.30;99.90;;;;;;5033014;28;21187;-86
2022/11/11 07:07:31;;;;;;;170.68;59.83;;;4.20;99.90;;;;;;5033787;28;20036;-87
2022/11/11 07:10:16;;;;;;;125.30;52.03;;;4.20;99.90;;;;;;5028105;28;20112;-86
2022/11/11 07:13:01;;;;;;;154.70;61.28;;;4.30;99.90;;;;;;5033277;28;20587;-86
2022/11/11 07:15:45;;;;;;;141.05;55.25;;;4.30;99.90;;;;;;5033275;28;20052;-86
2022/11/11 07:18:30;;;;;;;103.40;45.65;;;4.40;99.90;;;;;;5033888;28;20126;-86
2022/11/11 07:21:14;;;;;;;95.82;40.00;;;4.50;99.90;;;;;;5034486;28;20044;-86
2022/11/11 07:23:58;;;;;;;76.25;33.65;;;4.50;99.90;;;;;;5034372;28;20052;-87
2022/11/11 07:26:42;;;;;;;66.20;31.40;;;4.50;99.90;;;;;;5034057;28;20088;-86
2022/11/11 07:29:28;;;;;;;61.20;29.48;;;4.50;99.90;;;;;;5029328;28;20079;-86
2022/11/11 07:32:12;;;;;;;68.15;30.05;;;4.50;99.90;;;;;;5032957;28;20443;-86
2022/11/11 07:34:56;;;;;;;67.78;31.15;;;4.50;99.90;;;;;;5033653;28;20049;-87
2022/11/11 07:37:40;;;;;;;64.20;31.75;;;4.50;99.90;;;;;;5031106;28;20178;-86
2022/11/11 07:40:25;;;;;;;64.07;29.05;;;4.60;99.90;;;;;;5032751;28;20048;-87
2022/11/11 07:43:10;;;;;;;62.20;31.48;;;4.70;99.90;;;;;;5033556;28;20044;-87
2022/11/11 07:45:54;;;;;;;77.18;35.22;;;4.80;99.90;;;;;;5032970;28;20048;-87
2022/11/11 07:48:38;;;;;;;61.50;30.83;;;4.90;99.90;;;;;;5032966;28;20084;-87
2022/11/11 07:51:22;;;;;;;83.30;34.72;;;5.10;99.90;;;;;;5028116;28;20484;-87
2022/11/11 07:54:06;;;;;;;77.40;34.33;;;5.20;99.90;;;;;;5033237;28;20036;-86
2022/11/11 07:56:50;;;;;;;73.20;32.75;;;5.40;99.90;;;;;;5026082;28;20045;-87
2022/11/11 07:59:34;;;;;;;78.15;30.15;;;5.50;99.90;;;;;;5030911;28;20043;-87
2022/11/11 08:02:18;;;;;;;70.00;30.27;;;5.50;99.90;;;;;;5032416;28;20128;-87
2022/11/11 08:05:03;;;;;;;63.78;29.58;;;5.70;99.90;;;;;;5031999;28;20045;-87
2022/11/11 08:07:47;;;;;;;71.47;32.05;;;5.90;99.90;;;;;;5046590;28;20067;-87
2022/11/11 08:10:32;;;;;;;72.82;32.05;;;6.00;99.90;;;;;;5031419;28;20088;-87
2022/11/11 08:16:20;;;;;;;100.85;43.17;;;6.30;99.90;;;;;;5033535;28;20056;-87
2022/11/11 08:19:15;;;;;;;80.55;36.75;;;6.50;99.90;;;;;;5031504;28;20063;-86
2022/11/11 08:21:59;;;;;;;69.80;34.00;;;6.60;99.90;;;;;;5031948;28;20126;-86
2022/11/11 08:24:44;;;;;;;60.67;25.90;;;6.70;99.90;;;;;;5030375;28;20044;-87
2022/11/11 08:27:28;;;;;;;64.45;28.52;;;6.80;99.90;;;;;;5029863;28;20714;-87
2022/11/11 08:30:13;;;;;;;49.78;25.95;;;6.90;99.90;;;;;;5031745;28;20040;-86
2022/11/11 08:32:58;;;;;;;52.13;23.60;;;7.00;99.90;;;;;;5032471;28;20741;-87
2022/11/11 08:35:43;;;;;;;53.42;24.92;;;7.10;99.90;;;;;;5041892;28;20040;-87
2022/11/11 08:39:05;;;;;;;58.30;25.05;;;7.10;99.90;;;;;;5044902;28;20051;-87
2022/11/11 08:41:49;;;;;;;;;;;7.10;99.90;;;;;;5048130;28;20550;-88
2022/11/11 08:44:33;;;;;;;50.95;23.38;;;7.20;99.90;;;;;;5042657;28;19959;-87
2022/11/11 08:47:19;;;;;;;64.32;22.95;;;7.20;99.90;;;;;;5042437;28;20045;-87
2022/11/11 08:53:51;;;;;;;55.00;24.10;;;7.20;99.90;;;;;;5033050;28;20044;-88
2022/11/11 08:56:35;;;;;;;53.47;24.55;;;7.10;99.90;;;;;;5038893;28;20093;-88
2022/11/11 08:59:19;;;;;;;54.78;25.55;;;7.20;99.90;;;;;;5043721;28;20075;-87
2022/11/11 09:02:40;;;;;;;51.95;25.02;;;7.30;99.90;;;;;;5033949;28;20051;-87
2022/11/11 09:05:24;;;;;;;55.10;24.42;;;7.20;99.90;;;;;;5043773;28;20122;-88
2022/11/11 09:08:09;;;;;;;62.25;25.98;;;7.20;99.90;;;;;;5038656;28;20044;-87
2022/11/11 09:10:53;;;;;;;52.70;26.70;;;7.10;99.90;;;;;;5048357;28;20036;-87
2022/11/11 09:13:37;;;;;;;46.13;22.80;;;7.10;99.90;;;;;;5039406;28;20071;-88
2022/11/11 09:16:21;;;;;;;51.15;23.27;;;7.10;99.90;;;;;;5044156;28;20048;-87
2022/11/11 09:19:05;;;;;;;46.80;24.67;;;7.10;99.90;;;;;;5033407;28;20051;-87
2022/11/11 09:22:27;;;;;;;51.15;21.83;;;7.10;99.90;;;;;;5042667;28;20087;-87
2022/11/11 09:28:55;;;;;;;49.47;22.35;;;7.20;99.90;;;;;;5032374;28;20752;-86
2022/11/11 09:31:39;;;;;;;43.60;20.90;;;7.30;99.90;;;;;;5041179;28;20442;-87
2022/11/11 09:34:23;;;;;;;43.60;21.02;;;7.30;99.90;;;;;;5045334;28;20396;-86
2022/11/11 09:37:07;;;;;;;42.15;22.02;;;7.40;99.90;;;;;;5039421;28;20543;-86
2022/11/11 09:39:51;;;;;;;49.60;22.50;;;7.40;99.90;;;;;;5046731;28;20076;-87
2022/11/11 09:42:46;;;;;;;34.35;19.10;;;7.50;99.90;;;;;;5039393;28;20048;-87
2022/11/11 09:45:39;;;;;;;33.58;18.90;;;7.60;99.90;;;;;;5042914;28;20056;-87
2022/11/11 09:48:39;;;;;;;38.05;20.27;;;7.70;99.90;;;;;;5027610;28;20455;-87
2022/11/11 09:51:29;;;;;;;34.63;18.92;;;7.80;99.90;;;;;;5041172;28;20044;-87
2022/11/11 09:54:23;;;;;;;33.05;17.85;;;7.90;99.90;;;;;;5040120;28;20180;-87
2022/11/11 09:57:33;;;;;;;32.60;17.73;;;8.00;99.90;;;;;;5034525;28;20040;-87
2022/11/11 10:00:31;;;;;;;25.48;14.43;;;8.10;99.90;;;;;;5040813;28;20090;-89
2022/11/11 10:03:25;;;;;;;22.58;11.75;;;8.20;99.90;;;;;;5039278;28;20053;-88
2022/11/11 10:06:17;;;;;;;18.13;10.85;;;8.30;99.90;;;;;;5035201;28;20056;-87
2022/11/11 10:09:20;;;;;;;18.50;10.35;;;8.40;99.90;;;;;;5024423;28;20040;-88
2022/11/11 10:12:13;;;;;;;16.00;10.05;;;8.50;99.90;;;;;;5038544;28;20131;-88
2022/11/11 10:15:00;;;;;;;15.15;9.18;;;8.80;99.90;;;;;;5040840;28;20123;-88
2022/11/11 10:17:54;;;;;;;19.15;8.65;;;9.30;99.90;;;;;;5049545;28;20040;-87
2022/11/11 10:20:45;;;;;;;13.65;7.47;;;9.70;99.90;;;;;;5041914;28;20048;-87
2022/11/11 10:23:34;;;;;;;16.05;8.82;;;9.80;99.90;;;;;;5046740;28;20064;-87
2022/11/11 10:26:23;;;;;;;14.80;7.70;;;10.10;99.90;;;;;;5044333;28;20086;-88
2022/11/11 10:29:18;;;;;;;21.73;11.20;;;10.40;99.90;;;;;;5046759;28;20044;-87
2022/11/11 10:32:16;;;;;;;16.23;8.30;;;10.50;99.90;;;;;;5041592;28;20111;-88
2022/11/11 10:35:22;;;;;;;12.30;6.72;;;10.30;99.90;;;;;;5038164;28;20802;-88
2022/11/11 10:38:09;;;;;;;18.08;8.60;;;10.30;99.90;;;;;;5034932;28;20470;-88
2022/11/11 10:40:56;;;;;;;16.25;6.15;;;10.30;99.90;;;;;;5045742;28;20102;-88
2022/11/11 10:43:45;;;;;;;13.27;7.35;;;10.10;99.90;;;;;;5033699;28;20040;-87
2022/11/11 10:46:43;;;;;;;9.85;5.45;;;10.10;99.90;;;;;;5033858;28;20103;-87
2022/11/11 10:49:34;;;;;;;7.82;5.32;;;10.10;99.90;;;;;;5033470;28;20086;-87
2022/11/11 10:52:24;;;;;;;;;;;10.00;99.90;;;;;;5034633;28;20448;-87
2022/11/11 10:55:19;;;;;;;12.55;6.00;;;9.90;99.90;;;;;;5038591;28;19931;-88
2022/11/11 10:58:15;;;;;;;22.83;8.57;;;9.90;99.90;;;;;;5027418;28;20095;-88
2022/11/11 11:01:02;;;;;;;14.77;6.32;;;10.00;99.90;;;;;;5026985;28;20144;-88
2022/11/11 11:03:54;;;;;;;9.77;5.63;;;10.10;99.90;;;;;;5034595;28;20056;-88
2022/11/11 11:06:41;;;;;;;;;;;10.20;99.90;;;;;;5034402;28;20107;-88
2022/11/11 11:09:39;;;;;;;16.75;6.68;;;10.20;99.90;;;;;;5030286;28;20016;-88
2022/11/11 11:12:39;;;;;;;13.43;6.05;;;10.20;99.90;;;;;;5041910;28;20044;-88
2022/11/11 11:15:27;;;;;;;11.15;5.25;;;10.30;99.90;;;;;;5026997;28;20113;-88
2022/11/11 11:18:13;;;;;;;11.88;5.55;;;10.40;99.90;;;;;;5033167;28;20060;-88
2022/11/11 11:21:01;;;;;;;7.07;4.45;;;10.50;99.90;;;;;;5026201;28;20040;-88
2022/11/11 11:23:46;;;;;;;8.50;3.88;;;10.50;99.90;;;;;;5044176;28;20091;-87
2022/11/11 11:26:47;;;;;;;10.65;4.20;;;10.50;99.90;;;;;;5046635;28;20090;-87
2022/11/11 11:29:41;;;;;;;7.53;3.60;;;10.70;99.90;;;;;;5048121;28;20152;-88
2022/11/11 11:32:30;;;;;;;6.22;3.58;;;11.00;99.90;;;;;;5038038;28;20685;-90
2022/11/11 11:35:29;;;;;;;8.73;3.83;;;11.40;99.90;;;;;;5039405;28;20076;-88
2022/11/11 11:38:17;;;;;;;6.82;3.85;;;11.20;99.90;;;;;;5036135;28;20044;-88
2022/11/11 11:41:02;;;;;;;6.45;3.50;;;11.10;99.90;;;;;;5026643;28;20045;-88
2022/11/11 11:43:46;;;;;;;4.57;3.38;;;11.20;99.90;;;;;;5043006;28;20039;-88
2022/11/11 11:46:37;;;;;;;6.13;3.67;;;11.00;99.90;;;;;;5046237;28;20047;-87
2022/11/11 11:49:45;;;;;;;;;;;10.90;99.90;;;;;;5037677;28;20044;-87
2022/11/11 11:53:02;;;;;;;6.10;3.97;;;10.80;99.90;;;;;;5039959;28;19920;-87
2022/11/11 11:56:14;;;;;;;8.50;3.65;;;10.80;99.90;;;;;;5043809;28;20120;-88
2022/11/11 11:59:07;;;;;;;5.50;3.83;;;10.80;99.90;;;;;;5036664;28;20085;-88
2022/11/11 12:02:30;;;;;;;6.00;3.63;;;10.90;99.90;;;;;;5044781;28;20428;-88
2022/11/11 12:05:37;;;;;;;6.68;3.10;;;10.90;99.90;;;;;;5040928;28;20499;-87
2022/11/11 12:08:44;;;;;;;7.97;3.70;;;10.80;99.90;;;;;;5032007;28;20160;-88
2022/11/11 12:11:37;;;;;;;4.85;3.40;;;10.90;99.90;;;;;;5032629;28;20037;-85
2022/11/11 12:14:24;;;;;;;7.85;3.50;;;10.80;99.90;;;;;;5029727;28;20388;-87
2022/11/11 12:17:23;;;;;;;6.07;3.72;;;10.80;99.90;;;;;;5022169;28;20048;-88
2022/11/11 12:20:27;;;;;;;10.65;4.32;;;10.80;99.90;;;;;;5026070;28;20037;-88
2022/11/11 12:23:40;;;;;;;8.32;3.95;;;10.90;99.90;;;;;;5032863;28;20096;-87
2022/11/11 12:26:30;;;;;;;10.82;4.70;;;10.90;99.90;;;;;;5028613;28;20592;-88
2022/11/11 12:29:27;;;;;;;9.50;4.57;;;10.80;99.90;;;;;;5026363;28;20082;-88
2022/11/11 12:32:17;;;;;;;10.32;5.15;;;10.80;99.90;;;;;;5031794;28;20359;-88
2022/11/11 12:35:16;;;;;;;8.90;4.20;;;10.80;99.90;;;;;;5032604;28;20065;-87
2022/11/11 12:38:28;;;;;;;9.48;4.55;;;10.80;99.90;;;;;;5026292;28;20040;-88
2022/11/11 12:41:18;;;;;;;14.60;4.82;;;10.90;99.90;;;;;;5031714;28;20036;-88
2022/11/11 12:44:11;;;;;;;7.78;5.22;;;10.90;99.90;;;;;;5041500;28;20110;-88
2022/11/11 12:47:18;;;;;;;9.93;4.97;;;10.90;99.90;;;;;;5032245;28;20619;-88
2022/11/11 12:50:54;;;;;;;13.25;5.45;;;10.90;99.90;;;;;;5029941;28;20052;-89
2022/11/11 12:53:51;;;;;;;10.18;5.43;;;11.00;99.90;;;;;;5029905;28;20397;-88
2022/11/11 12:57:03;;;;;;;7.75;4.95;;;11.00;99.90;;;;;;5029342;28;20540;-87
2022/11/11 13:00:00;;;;;;;8.45;5.50;;;11.10;99.90;;;;;;5030813;28;20451;-88
2022/11/11 13:03:09;;;;;;;8.85;5.05;;;11.00;99.90;;;;;;5025919;28;20045;-88
2022/11/11 13:06:12;;;;;;;9.80;4.45;;;11.10;99.90;;;;;;5031278;28;20079;-88
2022/11/11 13:09:30;;;;;;;9.45;4.75;;;11.10;99.90;;;;;;5023880;28;20084;-89
2022/11/11 13:12:28;;;;;;;16.10;5.13;;;11.20;99.90;;;;;;5029032;28;20040;-87
2022/11/11 13:15:53;;;;;;;10.52;5.00;;;11.20;99.90;;;;;;5031030;28;20044;-88
2022/11/11 13:19:17;;;;;;;12.80;5.30;;;11.20;99.90;;;;;;5029944;28;20061;-88
2022/11/11 13:22:25;;;;;;;9.73;4.57;;;11.20;99.90;;;;;;5024638;28;20439;-88
2022/11/11 13:25:14;;;;;;;10.13;4.72;;;11.20;99.90;;;;;;5027705;28;20096;-88
2022/11/11 13:28:02;;;;;;;11.55;4.63;;;11.10;99.90;;;;;;5024249;28;20066;-88
2022/11/11 13:31:05;;;;;;;7.97;4.53;;;11.10;99.90;;;;;;5031082;28;20052;-88
2022/11/11 13:33:53;;;;;;;11.80;4.65;;;11.00;99.90;;;;;;5031344;28;20056;-88
2022/11/11 13:36:45;;;;;;;6.70;3.55;;;11.00;99.90;;;;;;5040338;28;20100;-87
2022/11/11 13:39:39;;;;;;;7.80;4.10;;;11.00;99.90;;;;;;5043802;28;20535;-88
2022/11/11 13:42:27;;;;;;;9.32;4.93;;;10.80;99.90;;;;;;5039168;28;20499;-88
2022/11/11 13:45:29;;;;;;;10.88;5.30;;;10.70;99.90;;;;;;5031999;28;20763;-88
2022/11/11 13:48:36;;;;;;;11.82;5.57;;;10.70;99.90;;;;;;5047595;28;20056;-88
2022/11/11 13:51:30;;;;;;;13.13;5.28;;;10.60;99.90;;;;;;5044475;28;20043;-86
2022/11/11 13:54:24;;;;;;;7.45;4.45;;;10.50;99.90;;;;;;5043618;28;20087;-88
2022/11/11 13:57:17;;;;;;;7.97;5.30;;;10.50;99.90;;;;;;5038975;28;20184;-90
2022/11/11 14:00:22;;;;;;;9.30;4.97;;;10.50;99.90;;;;;;5033444;28;20043;-88
2022/11/11 14:03:19;;;;;;;7.22;4.97;;;10.40;99.90;;;;;;5036737;28;20095;-88
2022/11/11 14:06:13;;;;;;;10.23;5.88;;;10.40;99.90;;;;;;5027376;28;20044;-88
2022/11/11 14:08:57;;;;;;;9.65;6.63;;;10.30;99.90;;;;;;5034122;28;20112;-88
2022/11/11 14:11:41;;;;;;;11.02;7.35;;;10.20;99.90;;;;;;5035573;28;20144;-88
2022/11/11 14:14:31;;;;;;;12.23;6.60;;;10.20;99.90;;;;;;5034044;28;20507;-88
2022/11/11 14:17:16;;;;;;;14.52;6.07;;;10.20;99.90;;;;;;5028908;28;20053;-88
2022/11/11 14:20:35;;;;;;;14.65;6.25;;;10.10;99.90;;;;;;5030450;28;20124;-89
2022/11/11 14:23:41;;;;;;;15.98;6.18;;;10.10;99.90;;;;;;5034663;28;20099;-88
2022/11/11 14:26:27;;;;;;;11.85;5.88;;;10.00;99.90;;;;;;5036164;28;20052;-88
2022/11/11 14:29:19;;;;;;;13.65;6.07;;;10.00;99.90;;;;;;5030618;28;20040;-88
2022/11/11 14:32:31;;;;;;;12.02;6.75;;;9.90;99.90;;;;;;5030541;28;20088;-88
2022/11/11 14:35:31;;;;;;;17.83;7.45;;;9.80;99.90;;;;;;5029717;28;20037;-88
2022/11/11 14:38:43;;;;;;;12.73;7.75;;;9.60;99.90;;;;;;5023976;28;20036;-88
2022/11/11 14:41:45;;;;;;;18.25;8.57;;;9.50;99.90;;;;;;5032578;28;20801;-89
2022/11/11 14:44:32;;;;;;;9.97;6.70;;;9.40;99.90;;;;;;5034717;28;20396;-87
2022/11/11 14:47:16;;;;;;;18.27;7.05;;;9.40;99.90;;;;;;5038014;28;20709;-88
2022/11/11 14:50:32;;;;;;;9.93;6.85;;;9.40;99.90;;;;;;5035718;28;20737;-89
2022/11/11 14:53:29;;;;;;;10.23;6.63;;;9.20;99.90;;;;;;5041581;28;20044;-89
2022/11/11 14:56:16;;;;;;;16.17;7.15;;;9.10;99.90;;;;;;5039724;28;20063;-88
2022/11/11 14:59:06;;;;;;;21.77;7.53;;;9.00;99.90;;;;;;5035206;28;20545;-89
2022/11/11 15:01:54;;;;;;;18.73;7.82;;;8.90;99.90;;;;;;5045823;28;20448;-88
2022/11/11 15:04:39;;;;;;;15.77;6.63;;;8.90;99.90;;;;;;5045401;28;20404;-88
2022/11/11 15:07:33;;;;;;;12.98;6.35;;;8.70;99.90;;;;;;5047649;28;20044;-88
2022/11/11 15:10:38;;;;;;;16.05;6.93;;;8.70;99.90;;;;;;5043538;28;20098;-88
2022/11/11 15:13:59;;;;;;;13.95;6.82;;;8.60;99.90;;;;;;5040904;28;20392;-89
2022/11/11 15:17:22;;;;;;;13.50;6.83;;;8.50;99.90;;;;;;5042227;28;20040;-89
2022/11/11 15:20:18;;;;;;;13.15;6.70;;;8.50;99.90;;;;;;5029659;28;20267;-88
2022/11/11 15:23:24;;;;;;;12.95;7.68;;;8.30;99.90;;;;;;5037342;28;20044;-88
2022/11/11 15:26:44;;;;;;;17.83;6.75;;;8.20;99.90;;;;;;5036104;28;20082;-88
2022/11/11 15:29:50;;;;;;;12.13;7.65;;;8.00;99.90;;;;;;5045578;28;20041;-88
2022/11/11 15:32:49;;;;;;;13.15;7.22;;;7.70;99.90;;;;;;5039788;28;20056;-88
2022/11/11 15:35:47;;;;;;;13.52;7.82;;;7.60;99.90;;;;;;5045051;28;20096;-88
2022/11/11 15:38:32;;;;;;;14.30;8.20;;;7.40;99.90;;;;;;5044505;28;20143;-88
2022/11/11 15:41:26;;;;;;;17.75;7.93;;;7.40;99.90;;;;;;5045753;28;20178;-88
2022/11/11 15:44:34;;;;;;;15.40;7.30;;;7.30;99.90;;;;;;5047019;28;20067;-88
2022/11/11 15:47:19;;;;;;;17.30;7.88;;;7.10;99.90;;;;;;5039286;28;20072;-88
2022/11/11 15:50:16;;;;;;;13.70;8.45;;;7.00;99.90;;;;;;5024406;28;20440;-88
2022/11/11 15:53:01;;;;;;;18.00;8.93;;;6.90;99.90;;;;;;5038670;28;20047;-89
2022/11/11 15:55:59;;;;;;;15.20;8.18;;;6.80;99.90;;;;;;5045761;28;20781;-88
2022/11/11 15:58:43;;;;;;;16.10;8.43;;;6.70;99.90;;;;;;5043664;28;20118;-88
2022/11/11 16:01:28;;;;;;;15.70;8.73;;;6.60;99.90;;;;;;5040639;28;20183;-89
2022/11/11 16:04:22;;;;;;;14.57;9.02;;;6.50;99.90;;;;;;5035314;28;20032;-88
2022/11/11 16:07:20;;;;;;;21.50;9.55;;;6.40;99.90;;;;;;5045784;28;20112;-89